createdAt,value
2023-04-26T00:01:15.688Z,2.97
2023-04-26T00:04:12.241Z,2.80
2023-04-26T00:07:01.260Z,2.60
2023-04-26T00:09:52.782Z,2.80
2023-04-26T00:12:32.752Z,2.57
2023-04-26T00:15:19.544Z,2.53
2023-04-26T00:17:55.772Z,2.87
2023-04-26T00:20:45.451Z,2.53
2023-04-26T00:23:27.919Z,2.70
2023-04-26T00:26:22.316Z,2.57
2023-04-26T00:28:59.218Z,2.53
2023-04-26T00:31:38.155Z,2.77
2023-04-26T00:34:22.784Z,2.70
2023-04-26T00:36:56.159Z,2.77
2023-04-26T00:40:00.472Z,2.73
2023-04-26T00:43:06.821Z,2.60
2023-04-26T00:45:52.710Z,2.40
2023-04-26T00:48:24.335Z,2.63
2023-04-26T00:51:33.205Z,2.73
2023-04-26T00:54:04.157Z,3.07
2023-04-26T00:56:35.725Z,2.50
2023-04-26T00:59:24.756Z,2.87
2023-04-26T01:01:57.910Z,2.53
2023-04-26T01:04:34.017Z,2.80
2023-04-26T01:07:38.684Z,2.60
2023-04-26T01:10:11.091Z,2.83
2023-04-26T01:12:56.398Z,3.20
2023-04-26T01:15:30.313Z,2.80
2023-04-26T01:18:12.326Z,2.90
2023-04-26T01:21:05.452Z,3.00
2023-04-26T01:24:14.198Z,3.40
2023-04-26T01:26:54.729Z,2.87
2023-04-26T01:29:53.756Z,3.50
2023-04-26T01:32:25.914Z,3.00
2023-04-26T01:35:12.440Z,3.20
2023-04-26T01:37:47.678Z,3.10
2023-04-26T01:40:24.796Z,2.67
2023-04-26T01:43:12.887Z,2.90
2023-04-26T01:45:54.425Z,3.30
2023-04-26T01:48:34.792Z,2.90
2023-04-26T01:51:16.424Z,3.50
2023-04-26T01:53:49.381Z,3.20
2023-04-26T01:56:29.173Z,3.03
2023-04-26T01:59:15.051Z,3.30
2023-04-26T02:02:19.081Z,3.30
2023-04-26T02:04:55.732Z,3.37
2023-04-26T02:07:45.009Z,3.20
2023-04-26T02:10:32.581Z,3.30
2023-04-26T02:13:32.912Z,3.57
2023-04-26T02:16:12.797Z,3.40
2023-04-26T02:19:08.355Z,2.77
2023-04-26T02:21:58.443Z,3.30
2023-04-26T02:24:45.097Z,3.43
2023-04-26T02:27:24.877Z,3.00
2023-04-26T02:30:16.642Z,3.60
2023-04-26T02:32:57.126Z,3.10
2023-04-26T02:35:39.108Z,3.33
2023-04-26T02:38:17.209Z,3.00
2023-04-26T02:41:13.173Z,3.20
2023-04-26T02:44:05.426Z,3.27
2023-04-26T02:47:09.640Z,3.23
2023-04-26T02:49:53.332Z,3.43
2023-04-26T02:52:35.103Z,2.93
2023-04-26T02:55:09.281Z,2.83
2023-04-26T02:57:50.678Z,3.10
2023-04-26T03:00:26.684Z,3.80
2023-04-26T03:03:31.391Z,3.27
2023-04-26T03:06:11.884Z,3.30
2023-04-26T03:08:56.305Z,3.13
2023-04-26T03:11:28.280Z,3.63
2023-04-26T03:13:58.512Z,3.60
2023-04-26T03:16:33.591Z,3.40
2023-04-26T03:19:13.512Z,2.90
2023-04-26T03:21:45.513Z,3.20
2023-04-26T03:24:34.859Z,2.90
2023-04-26T03:27:23.964Z,3.60
2023-04-26T03:29:54.296Z,3.93
2023-04-26T03:32:36.741Z,3.90
2023-04-26T03:35:38.982Z,3.43
2023-04-26T03:38:16.908Z,3.33
2023-04-26T03:40:47.458Z,3.50
2023-04-26T03:43:29.488Z,3.77
2023-04-26T03:46:09.373Z,3.80
2023-04-26T03:48:48.115Z,3.30
2023-04-26T03:51:20.079Z,3.33
2023-04-26T03:53:55.643Z,3.10
2023-04-26T03:56:32.305Z,3.63
2023-04-26T03:59:09.728Z,3.43
2023-04-26T04:02:05.300Z,3.50
2023-04-26T04:04:42.572Z,3.67
2023-04-26T04:07:39.671Z,3.80
2023-04-26T04:10:14.068Z,3.23
2023-04-26T04:12:49.511Z,3.47
2023-04-26T04:15:32.157Z,3.53
2023-04-26T04:18:03.451Z,3.40
2023-04-26T04:20:58.655Z,3.93
2023-04-26T04:23:40.993Z,3.70
2023-04-26T04:26:27.495Z,3.40
2023-04-26T04:29:08.969Z,4.00
2023-04-26T04:32:03.815Z,3.80
2023-04-26T04:34:38.643Z,3.50
2023-04-26T04:37:42.933Z,3.80
2023-04-26T04:40:48.826Z,3.50
2023-04-26T04:43:28.312Z,3.50
2023-04-26T04:45:59.047Z,3.40
2023-04-26T04:48:38.909Z,3.60
2023-04-26T04:51:21.554Z,3.47
2023-04-26T04:54:18.518Z,3.80
2023-04-26T04:57:04.198Z,4.07
2023-04-26T04:59:39.508Z,3.70
2023-04-26T05:02:23.989Z,3.67
2023-04-26T05:04:54.251Z,4.87
2023-04-26T05:07:45.653Z,4.33
2023-04-26T05:10:43.610Z,3.60
2023-04-26T05:13:22.256Z,4.00
2023-04-26T05:16:08.804Z,3.87
2023-04-26T05:19:03.836Z,4.10
2023-04-26T05:21:36.521Z,3.60
2023-04-26T05:24:17.706Z,3.37
2023-04-26T05:27:01.613Z,3.80
2023-04-26T05:29:44.846Z,3.67
2023-04-26T05:32:46.570Z,3.87
2023-04-26T05:35:39.073Z,3.93
2023-04-26T05:38:38.852Z,4.03
2023-04-26T05:41:20.240Z,3.83
2023-04-26T05:44:03.567Z,4.33
2023-04-26T05:46:51.107Z,4.00
2023-04-26T05:49:40.621Z,4.30
2023-04-26T05:52:14.144Z,4.67
2023-04-26T05:55:04.493Z,3.87
2023-04-26T05:57:36.489Z,4.33
2023-04-26T06:00:16.179Z,4.77
2023-04-26T06:02:52.570Z,4.00
2023-04-26T06:05:35.610Z,3.90
2023-04-26T06:08:34.693Z,4.37
2023-04-26T06:11:23.735Z,4.00
2023-04-26T06:13:54.727Z,4.17
2023-04-26T06:16:29.665Z,3.93
2023-04-26T06:19:14.389Z,4.33
2023-04-26T06:21:57.546Z,4.20
2023-04-26T06:24:37.921Z,4.73
2023-04-26T06:27:48.508Z,4.70
2023-04-26T06:30:19.402Z,4.27
2023-04-26T06:33:02.075Z,3.97
2023-04-26T06:35:43.348Z,4.53
2023-04-26T06:38:31.939Z,4.40
2023-04-26T06:41:03.031Z,4.10
2023-04-26T06:43:45.014Z,4.30
2023-04-26T06:46:26.539Z,4.80
2023-04-26T06:49:11.511Z,4.43
2023-04-26T06:51:57.413Z,4.67
2023-04-26T06:54:56.121Z,5.10
2023-04-26T06:57:43.630Z,5.17
2023-04-26T07:00:45.331Z,5.30
2023-04-26T07:03:43.185Z,4.77
2023-04-26T07:06:29.572Z,4.67
2023-04-26T07:09:14.346Z,4.47
2023-04-26T07:11:49.660Z,5.07
2023-04-26T07:14:29.237Z,4.60
2023-04-26T07:17:18.298Z,4.33
2023-04-26T07:19:52.803Z,5.00
2023-04-26T07:22:45.932Z,4.50
2023-04-26T07:25:31.410Z,4.83
2023-04-26T07:28:05.147Z,4.43
2023-04-26T07:30:58.185Z,4.20
2023-04-26T07:33:54.029Z,4.47
2023-04-26T07:36:25.445Z,4.33
2023-04-26T07:38:56.531Z,4.33
2023-04-26T07:41:50.837Z,3.73
2023-04-26T07:44:36.169Z,4.13
2023-04-26T07:47:32.100Z,3.90
2023-04-26T07:50:12.346Z,4.47
2023-04-26T07:52:52.168Z,3.77
2023-04-26T07:55:25.692Z,4.33
2023-04-26T07:58:14.889Z,4.33
2023-04-26T08:00:59.495Z,4.03
2023-04-26T08:04:05.821Z,4.07
2023-04-26T08:06:45.340Z,4.00
2023-04-26T08:09:26.151Z,4.03
2023-04-26T08:12:15.084Z,3.70
2023-04-26T08:14:49.896Z,3.73
2023-04-26T08:17:45.445Z,3.50
2023-04-26T08:20:39.229Z,3.77
2023-04-26T08:23:20.204Z,3.73
2023-04-26T08:26:00.765Z,3.67
2023-04-26T08:28:47.607Z,3.60
2023-04-26T08:31:41.509Z,3.70
2023-04-26T08:34:43.091Z,3.00
2023-04-26T08:37:29.334Z,3.17
2023-04-26T08:40:00.420Z,3.43
2023-04-26T08:42:44.750Z,2.63
2023-04-26T08:45:17.984Z,3.33
2023-04-26T08:48:05.120Z,3.70
2023-04-26T08:50:49.995Z,3.13
2023-04-26T08:53:45.888Z,3.10
2023-04-26T08:56:49.012Z,2.70
2023-04-26T08:59:34.747Z,2.77
2023-04-26T09:02:15.148Z,3.20
2023-04-26T09:05:29.132Z,3.10
2023-04-26T09:08:14.014Z,3.07
2023-04-26T09:11:14.298Z,3.13
2023-04-26T09:13:44.696Z,3.07
2023-04-26T09:16:16.788Z,3.50
2023-04-26T09:19:06.745Z,3.10
2023-04-26T09:21:54.689Z,2.93
2023-04-26T09:24:50.944Z,3.40
2023-04-26T09:27:51.563Z,3.10
2023-04-26T09:30:31.705Z,2.93
2023-04-26T09:33:09.882Z,2.73
2023-04-26T09:35:55.097Z,3.20
2023-04-26T09:38:37.575Z,2.80
2023-04-26T09:41:31.144Z,3.10
2023-04-26T09:44:26.940Z,3.07
2023-04-26T09:47:13.010Z,2.70
2023-04-26T09:50:00.684Z,3.23
2023-04-26T09:52:34.001Z,3.00
2023-04-26T09:55:37.456Z,2.83
2023-04-26T09:58:13.454Z,2.70
2023-04-26T10:01:02.738Z,2.77
2023-04-26T10:03:39.924Z,2.90
2023-04-26T10:06:27.625Z,2.90
2023-04-26T10:09:13.473Z,2.23
2023-04-26T10:12:14.668Z,2.53
2023-04-26T10:14:51.371Z,2.40
2023-04-26T10:17:35.981Z,2.50
2023-04-26T10:20:19.849Z,2.73
2023-04-26T10:23:08.277Z,2.83
2023-04-26T10:25:44.980Z,2.70
2023-04-26T10:28:41.846Z,2.40
2023-04-26T10:31:36.993Z,2.57
2023-04-26T10:34:23.289Z,2.40
2023-04-26T10:37:13.596Z,3.10
2023-04-26T10:39:56.788Z,2.50
2023-04-26T10:42:41.499Z,2.80
2023-04-26T10:45:32.112Z,2.80
2023-04-26T10:48:25.478Z,3.07
2023-04-26T10:51:14.705Z,2.87
2023-04-26T10:54:04.639Z,3.10
2023-04-26T10:56:55.996Z,2.80
2023-04-26T10:59:43.384Z,3.13
2023-04-26T11:03:12.207Z,3.20
2023-04-26T11:06:01.086Z,3.30
2023-04-26T11:08:37.013Z,3.10
2023-04-26T11:11:13.805Z,3.20
2023-04-26T11:14:05.325Z,2.80
2023-04-26T11:16:40.531Z,2.80
2023-04-26T11:19:26.124Z,3.13
2023-04-26T11:22:03.750Z,2.93
2023-04-26T11:24:47.808Z,2.53
2023-04-26T11:27:42.211Z,3.07
2023-04-26T11:30:15.396Z,3.30
2023-04-26T11:33:08.695Z,3.13
2023-04-26T11:35:54.619Z,3.37
2023-04-26T11:38:31.734Z,3.43
2023-04-26T11:41:12.553Z,2.73
2023-04-26T11:44:11.259Z,3.07
2023-04-26T11:46:59.804Z,2.83
2023-04-26T11:49:42.329Z,3.17
2023-04-26T11:52:45.959Z,3.30
2023-04-26T11:55:17.784Z,3.13
2023-04-26T11:57:49.338Z,3.50
2023-04-26T12:00:32.768Z,3.20
2023-04-26T12:03:18.951Z,3.37
2023-04-26T12:06:06.331Z,3.37
2023-04-26T12:09:06.819Z,2.87
2023-04-26T12:12:08.177Z,2.87
2023-04-26T12:14:45.800Z,3.23
2023-04-26T12:17:18.058Z,2.97
2023-04-26T12:19:53.397Z,2.60
2023-04-26T12:22:29.570Z,2.60
2023-04-26T12:25:12.970Z,2.73
2023-04-26T12:28:02.242Z,3.13
2023-04-26T12:30:36.752Z,2.77
2023-04-26T12:33:26.908Z,2.70
2023-04-26T12:36:09.042Z,3.00
2023-04-26T12:38:56.867Z,2.70
2023-04-26T12:41:40.132Z,2.53
2023-04-26T12:44:27.528Z,2.90
2023-04-26T12:47:22.382Z,2.40
2023-04-26T12:49:59.360Z,2.33
2023-04-26T12:52:30.811Z,2.60
2023-04-26T12:55:20.420Z,2.60
2023-04-26T12:58:12.524Z,2.43
2023-04-26T13:00:56.459Z,2.30
2023-04-26T13:03:43.918Z,2.60
2023-04-26T13:06:34.556Z,2.30
2023-04-26T13:09:26.368Z,2.50
2023-04-26T13:12:10.871Z,2.30
2023-04-26T13:15:17.738Z,2.73
2023-04-26T13:17:48.655Z,2.30
2023-04-26T13:20:26.664Z,2.47
2023-04-26T13:23:05.338Z,2.90
2023-04-26T13:25:42.377Z,2.43
2023-04-26T13:28:26.080Z,2.70
2023-04-26T13:31:09.416Z,3.13
2023-04-26T13:33:54.555Z,2.70
2023-04-26T13:36:37.348Z,2.97
2023-04-26T13:39:15.150Z,2.47
2023-04-26T13:41:46.978Z,3.10
2023-04-26T13:44:30.197Z,2.50
2023-04-26T13:47:07.079Z,2.20
2023-04-26T13:49:43.139Z,2.50
2023-04-26T13:52:42.738Z,2.17
2023-04-26T13:55:18.582Z,2.40
2023-04-26T13:58:12.003Z,2.50
2023-04-26T14:00:42.921Z,2.33
2023-04-26T14:03:36.394Z,2.53
2023-04-26T14:06:09.121Z,2.63
2023-04-26T14:08:50.531Z,2.50
2023-04-26T14:11:26.484Z,2.40
2023-04-26T14:13:59.418Z,2.93
2023-04-26T14:16:30.262Z,2.40
2023-04-26T14:19:27.750Z,2.63
2023-04-26T14:22:13.667Z,3.07
2023-04-26T14:25:12.725Z,2.50
2023-04-26T14:27:54.775Z,2.67
2023-04-26T14:30:40.423Z,2.77
2023-04-26T14:33:35.194Z,2.37
2023-04-26T14:36:41.229Z,2.80
2023-04-26T14:39:16.533Z,2.53
2023-04-26T14:42:02.238Z,2.50
2023-04-26T14:44:33.530Z,2.53
2023-04-26T14:47:10.381Z,2.50
2023-04-26T14:49:41.706Z,2.37
2023-04-26T14:52:20.450Z,2.30
2023-04-26T14:55:17.428Z,2.20
2023-04-26T14:57:52.715Z,2.50
2023-04-26T15:00:49.057Z,2.60
2023-04-26T15:03:31.585Z,2.40
2023-04-26T15:06:14.724Z,2.23
2023-04-26T15:09:09.181Z,2.40
2023-04-26T15:12:05.183Z,2.30
2023-04-26T15:14:35.827Z,2.30
2023-04-26T15:17:23.359Z,2.20
2023-04-26T15:20:13.220Z,2.30
2023-04-26T15:22:52.387Z,2.10
2023-04-26T15:26:06.296Z,2.50
2023-04-26T15:28:46.531Z,2.20
2023-04-26T15:31:26.405Z,2.00
2023-04-26T15:34:14.513Z,2.07
2023-04-26T15:37:12.535Z,2.20
2023-04-26T15:39:58.567Z,2.30
2023-04-26T15:42:44.471Z,2.10
2023-04-26T15:45:17.583Z,2.40
2023-04-26T15:47:48.830Z,1.90
2023-04-26T15:50:28.253Z,1.70
2023-04-26T15:53:09.830Z,2.10
2023-04-26T15:55:54.972Z,1.90
2023-04-26T15:58:45.650Z,2.10
2023-04-26T16:01:22.449Z,1.80
2023-04-26T16:04:00.429Z,2.50
2023-04-26T16:06:49.368Z,2.40
2023-04-26T16:09:46.327Z,2.10
2023-04-26T16:12:40.107Z,2.30
2023-04-26T16:15:32.067Z,2.03
2023-04-26T16:18:18.648Z,2.00
2023-04-26T16:21:10.273Z,2.30
2023-04-26T16:23:54.136Z,1.80
2023-04-26T16:26:25.564Z,1.90
2023-04-26T16:29:11.740Z,2.00
2023-04-26T16:31:53.152Z,2.07
2023-04-26T16:34:58.685Z,2.10
2023-04-26T16:37:46.139Z,2.20
2023-04-26T16:40:27.603Z,2.10
2023-04-26T16:43:19.136Z,1.97
2023-04-26T16:46:02.657Z,2.20
2023-04-26T16:48:46.415Z,1.80
2023-04-26T16:51:36.560Z,1.70
2023-04-26T16:54:26.522Z,1.80
2023-04-26T16:57:14.471Z,1.63
2023-04-26T16:59:53.864Z,1.87
2023-04-26T17:02:24.808Z,1.80
2023-04-26T17:05:27.331Z,1.67
2023-04-26T17:08:06.330Z,1.90
2023-04-26T17:10:52.117Z,2.00
2023-04-26T17:13:33.309Z,1.70
2023-04-26T17:16:11.699Z,1.80
2023-04-26T17:19:01.197Z,1.60
2023-04-26T17:21:41.368Z,1.63
2023-04-26T17:24:13.276Z,1.53
2023-04-26T17:27:00.898Z,1.60
2023-04-26T17:29:52.829Z,2.00
2023-04-26T17:32:37.893Z,1.80
2023-04-26T17:35:34.356Z,1.50
2023-04-26T17:38:26.319Z,1.70
2023-04-26T17:41:06.746Z,1.63
2023-04-26T17:44:03.743Z,2.00
2023-04-26T17:46:53.694Z,1.70
2023-04-26T17:49:33.526Z,1.50
2023-04-26T17:52:32.565Z,1.73
2023-04-26T17:55:35.478Z,1.70
2023-04-26T17:58:31.588Z,1.60
2023-04-26T18:01:10.129Z,1.70
2023-04-26T18:03:45.002Z,1.70
2023-04-26T18:06:18.430Z,1.63
2023-04-26T18:09:02.850Z,1.60
2023-04-26T18:11:37.925Z,1.80
2023-04-26T18:14:15.397Z,1.77
2023-04-26T18:17:03.919Z,1.60
2023-04-26T18:19:55.905Z,1.70
2023-04-26T18:22:33.156Z,1.63
2023-04-26T18:25:31.316Z,1.70
2023-04-26T18:28:45.336Z,1.90
2023-04-26T18:31:16.415Z,1.60
2023-04-26T18:34:03.512Z,1.90
2023-04-26T18:36:37.298Z,1.73
2023-04-26T18:39:32.191Z,1.80
2023-04-26T18:42:04.834Z,2.10
2023-04-26T18:45:17.549Z,1.80
2023-04-26T18:48:06.749Z,1.50
2023-04-26T18:50:53.113Z,1.80
2023-04-26T18:53:37.337Z,2.20
2023-04-26T18:56:19.051Z,1.80
2023-04-26T18:59:07.498Z,1.50
2023-04-26T19:01:50.735Z,1.57
2023-04-26T19:04:44.107Z,2.00
2023-04-26T19:07:39.647Z,1.60
2023-04-26T19:10:22.341Z,2.10
2023-04-26T19:13:12.975Z,1.70
2023-04-26T19:15:55.585Z,1.80
2023-04-26T19:18:38.436Z,1.90
2023-04-26T19:21:17.144Z,1.80
2023-04-26T19:23:49.009Z,1.60
2023-04-26T19:26:24.822Z,1.70
2023-04-26T19:28:55.995Z,1.63
2023-04-26T19:31:31.967Z,2.10
2023-04-26T19:34:06.368Z,2.10
2023-04-26T19:36:40.860Z,2.33
2023-04-26T19:39:23.966Z,2.90
2023-04-26T19:42:06.674Z,2.37
2023-04-26T19:44:56.904Z,2.20
2023-04-26T19:47:44.520Z,2.23
2023-04-26T19:50:40.268Z,2.20
2023-04-26T19:53:28.048Z,2.27
2023-04-26T19:56:13.584Z,2.70
2023-04-26T19:58:53.373Z,2.43
2023-04-26T20:01:39.939Z,2.50
2023-04-26T20:04:11.056Z,2.43
2023-04-26T20:07:01.009Z,2.40
2023-04-26T20:09:32.974Z,2.37
2023-04-26T20:12:34.072Z,2.47
2023-04-26T20:15:14.284Z,2.40
2023-04-26T20:17:58.474Z,1.90
2023-04-26T20:20:29.001Z,2.10
2023-04-26T20:23:22.959Z,1.97
2023-04-26T20:26:17.198Z,2.20
2023-04-26T20:29:06.555Z,2.00
2023-04-26T20:31:45.598Z,2.00
2023-04-26T20:34:26.340Z,2.20
2023-04-26T20:37:10.602Z,1.90
2023-04-26T20:40:02.892Z,2.03
2023-04-26T20:42:33.995Z,2.10
2023-04-26T20:45:25.679Z,2.40
2023-04-26T20:47:58.545Z,2.10
2023-04-26T20:50:45.162Z,3.10
2023-04-26T20:53:24.472Z,2.77
2023-04-26T20:56:17.900Z,2.70
2023-04-26T20:58:53.244Z,2.80
2023-04-26T21:01:34.154Z,2.50
2023-04-26T21:04:14.620Z,2.90
2023-04-26T21:06:45.258Z,2.90
2023-04-26T21:09:46.289Z,2.97
2023-04-26T21:13:01.619Z,2.23
2023-04-26T21:15:48.633Z,2.40
2023-04-26T21:18:31.508Z,2.57
2023-04-26T21:21:03.578Z,2.70
2023-04-26T21:23:44.274Z,2.47
2023-04-26T21:26:27.123Z,2.57
2023-04-26T21:29:17.399Z,2.70
2023-04-26T21:32:00.328Z,3.10
2023-04-26T21:34:37.140Z,3.30
2023-04-26T21:37:11.471Z,3.03
2023-04-26T21:40:07.669Z,2.90
2023-04-26T21:42:38.600Z,2.67
2023-04-26T21:45:40.840Z,3.90
2023-04-26T21:48:31.078Z,3.57
2023-04-26T21:51:17.098Z,3.00
2023-04-26T21:54:02.830Z,3.03
2023-04-26T21:56:38.295Z,2.93
2023-04-26T21:59:19.426Z,2.87
2023-04-26T22:02:04.530Z,3.27
2023-04-26T22:04:41.427Z,3.23
2023-04-26T22:07:25.021Z,3.33
2023-04-26T22:09:58.134Z,3.53
2023-04-26T22:12:28.094Z,2.97
2023-04-26T22:15:05.424Z,3.10
2023-04-26T22:17:45.736Z,3.10
2023-04-26T22:20:29.536Z,2.93
2023-04-26T22:23:01.053Z,2.83
2023-04-26T22:25:32.090Z,3.30
2023-04-26T22:28:21.258Z,3.33
2023-04-26T22:30:58.396Z,2.67
2023-04-26T22:33:57.131Z,2.90
2023-04-26T22:36:28.945Z,2.83
2023-04-26T22:39:16.569Z,3.00
2023-04-26T22:41:53.211Z,2.77
2023-04-26T22:44:41.548Z,2.77
2023-04-26T22:47:24.851Z,2.87
2023-04-26T22:50:44.388Z,2.70
2023-04-26T22:53:19.666Z,2.60
2023-04-26T22:56:10.540Z,2.73
2023-04-26T22:58:50.897Z,2.73
2023-04-26T23:01:32.472Z,2.93
2023-04-26T23:04:05.653Z,2.67
2023-04-26T23:07:06.354Z,2.83
2023-04-26T23:09:41.443Z,2.43
2023-04-26T23:12:14.060Z,2.90
2023-04-26T23:14:57.787Z,2.80
2023-04-26T23:17:38.548Z,2.57
2023-04-26T23:20:18.703Z,2.80
2023-04-26T23:22:52.345Z,3.00
2023-04-26T23:25:29.070Z,2.57
2023-04-26T23:28:10.284Z,2.70
2023-04-26T23:30:53.114Z,2.70
2023-04-26T23:33:24.433Z,3.73
2023-04-26T23:35:58.509Z,3.90
2023-04-26T23:39:05.097Z,2.70
2023-04-26T23:41:37.134Z,2.77
2023-04-26T23:44:11.053Z,3.03
2023-04-26T23:46:58.062Z,3.00
2023-04-26T23:49:35.251Z,3.10
2023-04-26T23:52:18.871Z,3.50
2023-04-26T23:54:59.408Z,3.50
2023-04-26T23:57:55.267Z,3.50
